Time;durP1;ratioP1;P1;durP2;ratioP2;P2;SDS_P1;SDS_P2;PMS_P1;PMS_P2;Temp;Humidity;BMP_temperature;BMP_pressure;BME280_temperature;BME280_humidity;BME280_pressure;Samples;Min_cycle;Max_cycle;Signal;HPM_P1;HPM_P2
2024/04/01 00:02:02;;;;;;;33.30;31.40;;;;;;;13.59;100.00;100843.63;5005673;28;20072;-71
2024/04/01 00:04:28;;;;;;;32.78;30.98;;;;;;;13.78;100.00;100847.09;5005583;28;20511;-78
2024/04/01 00:06:57;;;;;;;33.13;31.30;;;;;;;13.46;100.00;100854.41;5068275;28;20044;-72
2024/04/01 00:09:23;;;;;;;33.50;31.60;;;;;;;13.65;100.00;100848.06;4993284;28;20061;-72
2024/04/01 00:11:50;;;;;;;33.28;31.45;;;;;;;13.80;100.00;100850.34;5006807;28;20057;-71
2024/04/01 00:14:16;;;;;;;31.45;29.65;;;;;;;13.63;100.00;100846.66;4997917;28;20103;-72
2024/04/01 00:16:43;;;;;;;33.10;31.10;;;;;;;13.63;100.00;100844.78;4994841;28;20063;-72
2024/04/01 00:19:09;;;;;;;31.83;29.92;;;;;;;13.64;100.00;100845.59;4994015;28;20498;-72
2024/04/01 00:21:36;;;;;;;33.13;31.35;;;;;;;13.39;100.00;100843.00;5019369;28;20081;-72
2024/04/01 00:24:05;;;;;;;33.17;31.05;;;;;;;13.56;100.00;100841.41;5001830;28;20110;-71
2024/04/01 00:26:32;;;;;;;30.48;28.58;;;;;;;13.68;100.00;100844.94;5005722;28;20084;-71
2024/04/01 00:28:58;;;;;;;61.85;32.08;;;;;;;13.72;100.00;100842.66;5005842;28;20053;-72
2024/04/01 00:31:29;;;;;;;31.48;29.58;;;;;;;13.93;100.00;100846.69;4987921;28;20069;-72
2024/04/01 00:33:55;;;;;;;32.35;30.45;;;;;;;14.61;100.00;100841.06;4986394;28;20053;-71
2024/04/01 00:36:22;;;;;;;34.10;32.30;;;;;;;13.95;100.00;100848.13;5004745;28;20265;-71
2024/04/01 00:38:50;;;;;;;36.30;34.00;;;;;;;14.13;100.00;100841.94;4999572;28;20422;-71
2024/04/01 00:41:18;;;;;;;32.40;30.50;;;;;;;14.28;100.00;100835.34;4996344;28;20108;-71
2024/04/01 00:43:46;;;;;;;33.80;31.80;;;;;;;14.18;100.00;100842.03;5016887;28;20054;-71
2024/04/01 00:46:13;;;;;;;31.10;29.30;;;;;;;14.02;100.00;100842.69;4991467;28;20119;-72
2024/04/01 00:48:39;;;;;;;31.08;29.20;;;;;;;14.01;100.00;100840.22;5005886;28;20501;-72
2024/04/01 00:51:07;;;;;;;33.00;31.10;;;;;;;14.01;100.00;100849.06;4997398;28;20081;-72
2024/04/01 00:53:33;;;;;;;33.50;31.52;;;;;;;13.86;100.00;100854.00;5012215;28;20058;-72
2024/04/01 00:56:02;;;;;;;32.83;30.98;;;;;;;13.37;100.00;100842.41;4996698;28;20569;-71
2024/04/01 00:58:30;;;;;;;33.88;31.98;;;;;;;13.32;100.00;100855.59;5000063;28;20106;-72
2024/04/01 01:00:58;;;;;;;33.10;31.10;;;;;;;13.27;100.00;100845.59;4995266;28;20051;-72
2024/04/01 01:03:24;;;;;;;30.50;28.70;;;;;;;13.15;100.00;100858.78;5007541;28;20110;-72
2024/04/01 01:05:52;;;;;;;31.55;29.65;;;;;;;12.91;100.00;100857.78;5027123;28;20085;-71
2024/04/01 01:08:18;;;;;;;33.38;31.38;;;;;;;12.59;100.00;100862.34;5047348;28;20046;-72
2024/04/01 01:10:46;;;;;;;31.65;29.85;;;;;;;12.42;100.00;100861.22;5003046;28;20119;-72
2024/04/01 01:13:12;;;;;;;36.20;34.22;;;;;;;12.41;100.00;100854.25;5002558;28;20053;-73
2024/04/01 01:15:41;;;;;;;35.80;33.60;;;;;;;12.39;100.00;100859.78;5006833;28;20543;-72
2024/04/01 01:18:07;;;;;;;42.55;40.25;;;;;;;12.41;100.00;100867.56;5009848;28;20057;-73
2024/04/01 01:20:34;;;;;;;36.70;34.60;;;;;;;12.48;100.00;100861.16;4992876;28;20078;-72
2024/04/01 01:23:02;;;;;;;32.00;30.20;;;;;;;12.41;100.00;100870.25;5000937;28;20062;-72
2024/04/01 01:25:29;;;;;;;32.40;30.40;;;;;;;12.03;100.00;100873.69;4995100;28;20054;-72
2024/04/01 01:27:55;;;;;;;35.05;33.15;;;;;;;12.13;100.00;100872.22;5005373;28;20054;-72
2024/04/01 01:30:22;;;;;;;34.35;32.45;;;;;;;12.07;100.00;100873.06;5006657;28;20054;-71
2024/04/01 01:32:50;;;;;;;33.63;31.88;;;;;;;12.04;100.00;100873.50;5008583;28;20045;-72
2024/04/01 01:35:22;;;;;;;33.80;31.90;;;;;;;12.05;100.00;100868.97;5007801;28;20089;-72
2024/04/01 01:37:48;;;;;;;35.58;33.67;;;;;;;12.07;100.00;100875.75;5001693;28;20456;-72
2024/04/01 01:40:18;;;;;;;37.03;35.13;;;;;;;11.99;100.00;100881.28;4998044;28;20133;-73
2024/04/01 01:42:44;;;;;;;34.92;32.00;;;;;;;11.95;100.00;100884.56;5001165;28;20099;-72
2024/04/01 01:45:11;;;;;;;35.47;33.53;;;;;;;11.72;100.00;100880.53;4994321;28;20058;-78
2024/04/01 01:47:38;;;;;;;35.28;33.47;;;;;;;11.76;100.00;100889.72;4996806;28;20047;-77
2024/04/01 01:50:22;;;;;;;35.47;33.47;;;;;;;11.54;100.00;100881.19;4994781;28;20065;-78
2024/04/01 01:52:48;;;;;;;34.30;32.50;;;;;;;11.63;100.00;100890.59;5102235;28;20112;-78
2024/04/01 01:55:17;;;;;;;38.88;32.97;;;;;;;11.56;100.00;100889.78;5029940;28;20050;-78
2024/04/01 01:57:43;;;;;;;38.88;36.88;;;;;;;11.35;100.00;100893.50;4992991;28;20058;-78
2024/04/01 02:00:13;;;;;;;32.55;30.85;;;;;;;11.29;100.00;100896.19;5021033;28;20048;-77
2024/04/01 02:02:41;;;;;;;38.05;36.05;;;;;;;11.08;100.00;100894.56;4991736;28;20061;-78
2024/04/01 02:05:09;;;;;;;38.42;36.63;;;;;;;11.18;100.00;100897.59;5008536;28;20131;-79
2024/04/01 02:07:36;;;;;;;34.13;32.33;;;;;;;11.39;100.00;100899.22;5001970;28;20050;-78
2024/04/01 02:10:04;;;;;;;37.15;35.33;;;;;;;11.28;100.00;100905.16;5004339;28;20061;-78
2024/04/01 02:12:32;;;;;;;37.60;35.70;;;;;;;11.39;100.00;100905.34;5009350;28;20884;-78
2024/04/01 02:14:59;;;;;;;37.25;35.35;;;;;;;11.03;100.00;100910.28;5009034;28;20050;-78
2024/04/01 02:17:26;;;;;;;36.67;34.85;;;;;;;11.15;100.00;100911.31;5008646;28;20050;-77
2024/04/01 02:19:56;;;;;;;34.05;32.17;;;;;;;11.17;100.00;100907.41;5000314;28;20050;-78
2024/04/01 02:22:23;;;;;;;35.72;33.65;;;;;;;10.98;100.00;100914.38;5002161;28;20097;-78
2024/04/01 02:24:57;;;;;;;35.22;33.42;;;;;;;10.91;100.00;100918.84;5041959;28;20795;-78
2024/04/01 02:27:34;;;;;;;42.17;40.10;;;;;;;10.96;100.00;100910.28;5008757;28;20429;-78
2024/04/01 02:30:01;;;;;;;40.92;38.88;;;;;;;10.99;100.00;100915.19;4997837;28;20051;-78
2024/04/01 02:32:29;;;;;;;41.83;39.83;;;;;;;10.54;100.00;100920.22;4998811;28;20059;-77
2024/04/01 02:34:55;;;;;;;42.20;40.10;;;;;;;10.59;100.00;100917.81;4994622;28;20498;-78
2024/04/01 02:37:25;;;;;;;48.55;37.35;;;;;;;10.76;100.00;100913.72;5006916;28;20103;-78
2024/04/01 02:39:51;;;;;;;35.10;33.30;;;;;;;10.81;100.00;100914.97;4995513;28;20050;-77
2024/04/01 02:42:18;;;;;;;36.03;34.22;;;;;;;10.75;100.00;100920.06;5007706;28;20107;-72
2024/04/01 02:44:46;;;;;;;39.25;36.53;;;;;;;10.29;100.00;100917.31;5007234;28;20662;-72
2024/04/01 02:47:13;;;;;;;36.40;34.50;;;;;;;10.69;100.00;100914.75;5000354;28;20145;-72
2024/04/01 02:49:39;;;;;;;36.47;34.58;;;;;;;10.55;100.00;100909.38;4999809;28;20054;-73
2024/04/01 02:52:06;;;;;;;33.10;31.50;;;;;;;10.53;100.00;100924.72;5001351;28;20050;-72
2024/04/01 02:54:33;;;;;;;36.75;33.97;;;;;;;10.48;100.00;100918.38;5007334;28;20462;-73
2024/04/01 02:57:00;;;;;;;39.35;36.85;;;;;;;10.31;100.00;100928.53;4997454;28;20652;-72
2024/04/01 02:59:26;;;;;;;33.97;32.13;;;;;;;10.21;100.00;100920.91;4987806;28;20136;-72
2024/04/01 03:01:54;;;;;;;32.88;31.25;;;;;;;10.30;100.00;100924.25;5003698;28;20046;-72
2024/04/01 03:04:20;;;;;;;37.60;35.60;;;;;;;10.25;100.00;100918.66;4988358;28;20096;-73
2024/04/01 03:06:50;;;;;;;38.92;36.92;;;;;;;10.16;100.00;100917.19;4990065;28;20137;-71
2024/04/01 03:09:19;;;;;;;44.40;41.08;;;;;;;10.18;100.00;100915.19;4988057;28;20042;-71
2024/04/01 03:11:46;;;;;;;32.78;31.05;;;;;;;10.17;100.00;100914.38;4989122;28;20050;-73
2024/04/01 03:14:12;;;;;;;35.47;33.67;;;;;;;10.08;100.00;100919.03;4986869;28;20055;-72
2024/04/01 03:16:39;;;;;;;35.53;33.63;;;;;;;10.04;100.00;100920.41;4999164;28;20054;-72
2024/04/01 03:19:07;;;;;;;37.20;34.95;;;;;;;9.90;100.00;100925.88;5002524;28;20062;-71
2024/04/01 03:21:34;;;;;;;36.47;34.58;;;;;;;9.98;100.00;100923.84;4998637;28;20489;-71
2024/04/01 03:24:01;;;;;;;36.10;34.17;;;;;;;9.94;100.00;100922.63;4990345;28;20054;-78
2024/04/01 03:26:28;;;;;;;36.38;34.58;;;;;;;10.04;100.00;100930.22;5005249;28;20056;-77
2024/04/01 03:28:54;;;;;;;37.20;35.40;;;;;;;9.65;100.00;100931.63;5006268;28;20050;-72
2024/04/01 03:31:22;;;;;;;37.45;35.45;;;;;;;9.71;100.00;100938.81;4997959;28;20054;-72
2024/04/01 03:33:48;;;;;;;34.58;32.78;;;;;;;9.90;100.00;100936.50;5005099;28;20054;-78
2024/04/01 03:36:18;;;;;;;34.53;32.83;;;;;;;10.04;100.00;100935.53;4997795;28;20058;-72
2024/04/01 03:38:45;;;;;;;30.63;29.10;;;;;;;10.29;100.00;100936.69;5001584;28;20528;-73
2024/04/01 03:41:18;;;;;;;28.70;27.33;;;;;;;10.09;100.00;100933.91;4991607;28;20054;-73
2024/04/01 03:43:45;;;;;;;28.55;27.13;;;;;;;9.78;100.00;100936.22;5004386;28;20062;-72
2024/04/01 03:46:12;;;;;;;28.05;26.75;;;;;;;9.99;100.00;100930.00;5005048;28;20117;-71
2024/04/01 03:48:38;;;;;;;35.15;32.80;;;;;;;9.99;100.00;100936.13;4996475;28;20044;-72
2024/04/01 03:51:05;;;;;;;30.40;28.90;;;;;;;9.85;100.00;100935.22;5002328;28;20549;-72
2024/04/01 03:53:33;;;;;;;31.52;29.13;;;;;;;9.94;100.00;100935.88;5006599;28;20129;-73
2024/04/01 03:56:00;;;;;;;41.85;37.15;;;;;;;10.29;100.00;100942.00;4995488;28;20054;-73
2024/04/01 03:58:26;;;;;;;26.88;25.38;;;;;;;10.48;100.00;100937.78;5000542;28;20470;-71
2024/04/01 04:00:53;;;;;;;28.15;26.35;;;;;;;10.04;100.00;100932.88;5088479;28;20059;-73
2024/04/01 04:03:19;;;;;;;30.83;28.83;;;;;;;10.02;100.00;100935.72;5013648;28;20123;-73
2024/04/01 04:05:46;;;;;;;33.30;30.80;;;;;;;10.43;100.00;100931.41;5004706;28;20058;-72
2024/04/01 04:08:12;;;;;;;31.73;29.25;;;;;;;10.43;100.00;100942.03;5006798;28;20106;-73
2024/04/01 04:10:42;;;;;;;27.52;25.42;;;;;;;10.94;100.00;100938.88;5004745;28;20054;-72
2024/04/01 04:13:08;;;;;;;44.03;40.22;;;;;;;10.94;100.00;100934.38;4992589;28;20066;-72
2024/04/01 04:15:35;;;;;;;40.50;37.10;;;;;;;10.97;100.00;100938.50;4998514;28;20061;-72
2024/04/01 04:18:02;;;;;;;42.42;38.53;;;;;;;11.20;100.00;100930.94;5006427;28;20154;-72
2024/04/01 04:20:29;;;;;;;37.70;34.50;;;;;;;11.26;100.00;100939.13;5003488;28;20139;-73
2024/04/01 04:22:55;;;;;;;42.38;29.73;;;;;;;11.31;100.00;100944.63;5013302;28;20099;-71
2024/04/01 04:25:27;;;;;;;40.30;36.70;;;;;;;11.48;100.00;100939.72;4991468;28;20058;-72
2024/04/01 04:27:54;;;;;;;27.87;26.27;;;;;;;11.83;100.00;100938.44;5037183;28;20051;-72
2024/04/01 04:30:24;;;;;;;28.10;26.40;;;;;;;12.08;100.00;100943.91;4995553;28;20064;-72
2024/04/01 04:32:50;;;;;;;30.63;26.10;;;;;;;12.13;100.00;100937.94;4987794;28;20069;-73
2024/04/01 04:35:18;;;;;;;25.17;23.67;;;;;;;12.23;100.00;100945.50;4990798;28;20057;-72
2024/04/01 04:37:44;;;;;;;26.90;25.20;;;;;;;12.40;100.00;100945.84;5002076;28;20050;-73
2024/04/01 04:40:14;;;;;;;28.35;26.50;;;;;;;12.43;100.00;100945.41;4993513;28;20109;-77
2024/04/01 04:42:40;;;;;;;29.42;27.42;;;;;;;12.41;100.00;100942.16;5006167;28;20140;-77
2024/04/01 04:45:16;;;;;;;28.80;27.00;;;;;;;12.50;100.00;100949.69;5005592;28;20578;-78
2024/04/01 04:47:43;;;;;;;29.08;26.70;;;;;;;12.69;100.00;100955.94;5005435;28;20053;-78
2024/04/01 04:50:11;;;;;;;27.65;25.92;;;;;;;12.81;100.00;100953.41;4987689;28;20046;-77
2024/04/01 04:52:37;;;;;;;28.55;26.70;;;;;;;12.91;100.00;100948.41;4999621;28;20456;-72
2024/04/01 04:55:05;;;;;;;27.85;26.05;;;;;;;13.06;100.00;100950.75;4991570;28;20827;-72
2024/04/01 04:57:31;;;;;;;27.15;25.42;;;;;;;13.11;100.00;100950.94;4994353;28;20046;-71
2024/04/01 04:59:58;;;;;;;27.52;25.83;;;;;;;13.28;100.00;100959.22;4990553;28;20091;-73
2024/04/01 05:02:26;;;;;;;27.52;25.92;;;;;;;13.45;100.00;100956.84;4994486;28;20049;-77
2024/04/01 05:04:53;;;;;;;27.65;25.95;;;;;;;13.58;100.00;100947.91;5004229;28;20072;-72
2024/04/01 05:07:19;;;;;;;28.33;26.55;;;;;;;13.53;100.00;100948.56;4986835;28;20063;-71
2024/04/01 05:09:47;;;;;;;25.60;24.00;;;;;;;13.73;100.00;100949.19;4992124;28;20814;-78
2024/04/01 05:12:14;;;;;;;25.23;23.63;;;;;;;13.84;100.00;100949.50;5006754;28;20546;-78
2024/04/01 05:14:41;;;;;;;24.88;23.27;;;;;;;14.11;100.00;100944.69;5005095;28;20065;-77
2024/04/01 05:17:07;;;;;;;24.13;22.63;;;;;;;14.19;100.00;100952.38;4997880;28;20061;-71
2024/04/01 05:19:35;;;;;;;27.30;25.15;;;;;;;14.32;100.00;100956.75;5039996;28;20057;-71
2024/04/01 05:22:01;;;;;;;28.63;26.45;;;;;;;14.40;100.00;100957.28;4990410;28;20419;-72
2024/04/01 05:24:28;;;;;;;23.67;22.17;;;;;;;14.62;100.00;100949.59;5003120;28;20794;-72
2024/04/01 05:26:54;;;;;;;25.83;24.02;;;;;;;14.62;100.00;100957.63;5005318;28;20107;-71
2024/04/01 05:29:22;;;;;;;25.25;23.65;;;;;;;14.81;100.00;100963.72;4998293;28;20046;-71
2024/04/01 05:31:49;;;;;;;25.02;23.33;;;;;;;15.05;100.00;100953.09;4979467;28;20058;-72
2024/04/01 05:34:17;;;;;;;28.27;24.10;;;;;;;15.23;100.00;100962.91;5000087;28;20061;-72
2024/04/01 05:36:44;;;;;;;27.70;26.08;;;;;;;15.39;100.00;100967.56;4995447;28;20054;-72
2024/04/01 05:39:11;;;;;;;25.10;23.50;;;;;;;15.34;100.00;100967.47;4999531;28;20049;-71
2024/04/01 05:41:37;;;;;;;26.48;24.88;;;;;;;15.54;100.00;100961.75;5003397;28;20082;-72
2024/04/01 05:44:05;;;;;;;27.45;25.75;;;;;;;15.62;100.00;100963.28;4993272;28;20090;-78
2024/04/01 05:46:31;;;;;;;27.30;25.05;;;;;;;15.76;100.00;100953.97;5000847;28;20050;-77
2024/04/01 05:48:58;;;;;;;27.92;25.73;;;;;;;15.80;100.00;100965.84;4999472;28;20497;-78
2024/04/01 05:51:26;;;;;;;25.52;24.02;;;;;;;15.88;100.00;100962.81;5009835;28;20085;-77
2024/04/01 05:53:55;;;;;;;25.48;23.02;;;;;;;15.96;100.00;100956.28;5009018;28;20054;-78
2024/04/01 05:56:21;;;;;;;26.73;25.13;;;;;;;16.03;100.00;100951.59;5005886;28;20141;-77
2024/04/01 05:58:48;;;;;;;28.85;27.00;;;;;;;16.20;100.00;100957.03;5004104;28;20048;-78
2024/04/01 06:01:22;;;;;;;28.88;27.08;;;;;;;16.45;100.00;100948.69;5079552;28;20058;-78
2024/04/01 06:03:49;;;;;;;27.20;25.70;;;;;;;16.51;100.00;100950.41;5000064;28;20859;-77
2024/04/01 06:06:15;;;;;;;28.90;27.30;;;;;;;16.54;100.00;100952.59;4995502;28;20502;-78
2024/04/01 06:08:49;;;;;;;36.92;29.83;;;;;;;16.68;100.00;100951.28;5011309;28;20453;-77
2024/04/01 06:11:18;;;;;;;30.30;28.30;;;;;;;16.91;100.00;100952.22;4989887;28;20105;-77
2024/04/01 06:13:45;;;;;;;29.35;27.65;;;;;;;16.94;100.00;100951.75;5006781;28;20139;-77
2024/04/01 06:16:13;;;;;;;28.90;27.17;;;;;;;17.26;100.00;100956.56;5014443;28;20058;-77
2024/04/01 06:18:40;;;;;;;28.48;26.20;;;;;;;17.36;100.00;100945.97;5008882;28;20057;-78
2024/04/01 06:21:06;;;;;;;27.02;25.52;;;;;;;17.39;100.00;100938.25;5004444;28;20054;-78
2024/04/01 06:23:33;;;;;;;27.92;26.30;;;;;;;17.51;100.00;100946.19;5008367;28;20046;-73
2024/04/01 06:26:02;;;;;;;29.85;28.15;;;;;;;17.58;100.00;100940.69;5001535;28;20079;-72
2024/04/01 06:28:30;;;;;;;31.88;29.63;;;;;;;17.71;100.00;100934.13;5002665;28;20053;-72
2024/04/01 06:30:56;;;;;;;29.95;28.15;;;;;;;18.01;100.00;100939.94;4988688;28;20057;-71
2024/04/01 06:33:24;;;;;;;29.52;27.83;;;;;;;18.10;100.00;100937.63;4998365;28;20197;-72
2024/04/01 06:35:58;;;;;;;31.67;29.70;;;;;;;18.20;100.00;100936.94;4991493;28;20050;-72
2024/04/01 06:38:26;;;;;;;32.83;30.75;;;;;;;18.36;100.00;100937.91;4989739;28;20082;-71
2024/04/01 06:40:53;;;;;;;29.98;28.08;;;;;;;18.50;100.00;100939.94;4993905;28;20487;-72
2024/04/01 06:43:20;;;;;;;30.55;28.75;;;;;;;18.64;100.00;100939.53;4998433;28;20736;-72
2024/04/01 06:45:53;;;;;;;32.28;30.17;;;;;;;18.99;100.00;100939.91;5007758;28;20497;-72
2024/04/01 06:48:21;;;;;;;32.67;30.08;;;;;;;19.10;100.00;100940.81;4990950;28;20043;-77
2024/04/01 06:50:47;;;;;;;30.15;28.35;;;;;;;19.17;100.00;100935.19;5112523;28;20058;-77
2024/04/01 06:53:17;;;;;;;29.80;28.10;;;;;;;19.49;100.00;100945.94;5007098;28;20057;-72
2024/04/01 06:55:43;;;;;;;33.22;30.15;;;;;;;19.58;100.00;100946.28;4998101;28;20054;-77
2024/04/01 06:58:10;;;;;;;31.10;29.20;;;;;;;19.86;100.00;100950.50;5008120;28;20054;-78
2024/04/01 07:00:37;;;;;;;29.65;28.02;;;;;;;19.99;100.00;100950.00;4995964;28;20061;-72
2024/04/01 07:03:07;;;;;;;29.20;27.60;;;;;;;20.14;100.00;100955.44;5005633;28;20053;-72
2024/04/01 07:05:34;;;;;;;33.47;31.35;;;;;;;20.22;100.00;100940.66;5004557;28;20141;-72
2024/04/01 07:08:01;;;;;;;32.78;30.77;;;;;;;20.48;100.00;100948.81;5000641;28;20054;-71
2024/04/01 07:10:29;;;;;;;31.25;29.42;;;;;;;20.80;100.00;100949.44;4996585;28;20053;-72
2024/04/01 07:12:57;;;;;;;33.00;30.20;;;;;;;21.11;100.00;100943.25;4992991;28;20080;-72
2024/04/01 07:15:24;;;;;;;32.15;30.25;;;;;;;21.20;100.00;100947.84;5002537;28;20508;-73
2024/04/01 07:17:51;;;;;;;30.17;28.38;;;;;;;21.24;100.00;100950.78;4985962;28;20058;-72
2024/04/01 07:20:18;;;;;;;28.50;26.10;;;;;;;20.63;100.00;100948.88;5004880;28;20054;-72
2024/04/01 07:22:45;;;;;;;29.42;27.63;;;;;;;21.08;100.00;100944.59;4999625;28;20054;-73
2024/04/01 07:25:14;;;;;;;30.13;28.40;;;;;;;20.80;100.00;100933.25;5083736;22;20056;-77
2024/04/01 07:27:41;;;;;;;31.05;29.10;;;;;;;19.85;100.00;100935.41;5069050;28;20118;-77
2024/04/01 07:30:17;;;;;;;38.47;34.83;;;;;;;19.46;100.00;100935.69;5069047;28;20056;-77
2024/04/01 07:32:45;;;;;;;30.05;28.10;;;;;;;19.48;100.00;100943.50;5069141;28;20052;-77
2024/04/01 07:35:11;;;;;;;30.10;28.20;;;;;;;19.33;100.00;100934.22;5070114;28;20061;-76
2024/04/01 07:37:42;;;;;;;31.10;29.30;;;;;;;19.38;100.00;100930.78;5069852;28;20431;-77
2024/04/01 07:40:09;;;;;;;32.30;30.10;;;;;;;19.23;100.00;100928.78;5069537;28;20795;-74
2024/04/01 07:42:36;;;;;;;31.05;28.85;;;;;;;19.83;100.00;100932.16;5069694;28;20151;-73
2024/04/01 07:45:03;;;;;;;30.70;28.85;;;;;;;20.51;100.00;100927.50;5069364;28;20579;-76
2024/04/01 07:47:32;;;;;;;30.95;29.10;;;;;;;20.73;100.00;100923.81;5069006;28;20458;-73
2024/04/01 07:49:58;;;;;;;30.77;28.77;;;;;;;20.69;100.00;100928.09;5068854;28;20048;-73
2024/04/01 07:52:25;;;;;;;31.42;29.45;;;;;;;22.08;100.00;100926.81;5069070;28;20076;-73
2024/04/01 07:54:54;;;;;;;31.33;29.42;;;;;;;22.57;100.00;100928.75;5066566;28;20052;-76
2024/04/01 07:57:23;;;;;;;32.00;29.90;;;;;;;21.86;100.00;100933.41;5069245;28;20048;-76
2024/04/01 07:59:49;;;;;;;34.03;31.73;;;;;;;20.02;100.00;100927.91;5064340;28;20052;-76
2024/04/01 08:02:17;;;;;;;30.58;28.48;;;;;;;19.64;100.00;100927.19;5069184;28;20496;-76
2024/04/01 08:04:43;;;;;;;31.65;29.65;;;;;;;19.36;100.00;100916.75;5068968;28;20486;-76
2024/04/01 08:07:10;;;;;;;31.35;29.45;;;;;;;22.20;100.00;100916.50;5051174;28;20048;-76
2024/04/01 08:09:38;;;;;;;31.45;29.23;;;;;;;20.82;100.00;100924.91;5069540;28;20056;-79
2024/04/01 08:12:07;;;;;;;31.00;28.95;;;;;;;19.59;100.00;100926.31;5068404;28;20559;-76
2024/04/01 08:14:34;;;;;;;32.10;29.63;;;;;;;19.54;100.00;100929.78;5068358;28;20048;-72
2024/04/01 08:17:01;;;;;;;29.10;27.30;;;;;;;19.92;100.00;100924.38;5067669;28;20106;-74
2024/04/01 08:19:33;;;;;;;30.27;28.38;;;;;;;20.65;100.00;100918.94;5068284;28;20048;-76
2024/04/01 08:22:00;;;;;;;29.63;27.73;;;;;;;20.02;100.00;100917.13;5064988;28;20064;-76
2024/04/01 08:24:26;;;;;;;29.25;27.35;;;;;;;20.11;100.00;100918.22;5063172;28;20049;-75
2024/04/01 08:26:53;;;;;;;31.42;29.42;;;;;;;19.94;100.00;100917.66;5067901;28;20083;-79
2024/04/01 08:29:22;;;;;;;32.70;30.70;;;;;;;23.80;100.00;100909.50;5068018;28;20098;-76
2024/04/01 08:31:54;;;;;;;33.75;31.65;;;;;;;21.96;100.00;100919.03;5068942;28;20144;-77
2024/04/01 08:34:21;;;;;;;34.25;32.17;;;;;;;22.10;100.00;100919.25;5068739;28;20048;-76
2024/04/01 08:36:50;;;;;;;32.20;30.10;;;;;;;20.59;100.00;100908.13;5067793;28;20056;-73
2024/04/01 08:39:16;;;;;;;30.48;28.48;;;;;;;21.05;100.00;100918.13;5055346;28;20041;-76
2024/04/01 08:41:50;;;;;;;30.08;28.17;;;;;;;19.80;100.00;100916.50;5068912;28;20135;-78
2024/04/01 08:44:17;;;;;;;31.77;29.77;;;;;;;20.13;100.00;100909.91;5067948;28;20499;-75
2024/04/01 08:46:49;;;;;;;32.30;30.40;;;;;;;19.75;100.00;100913.78;5068420;28;20049;-76
2024/04/01 08:49:15;;;;;;;35.53;33.10;;;;;;;19.13;100.00;100907.19;5065984;28;20048;-75
2024/04/01 08:51:44;;;;;;;30.42;28.52;;;;;;;19.37;100.00;100907.63;5068690;28;20048;-75
2024/04/01 08:54:11;;;;;;;31.35;28.88;;;;;;;19.10;100.00;100905.00;5068698;28;20055;-79
2024/04/01 08:56:40;;;;;;;30.63;28.83;;;;;;;19.00;100.00;100903.03;5068957;28;20048;-73
2024/04/01 08:59:07;;;;;;;32.67;30.60;;;;;;;18.98;100.00;100900.59;5068396;28;20051;-76
2024/04/01 09:01:36;;;;;;;30.33;28.63;;;;;;;19.12;100.00;100892.91;5058970;28;20070;-73
2024/04/01 09:04:03;;;;;;;31.38;29.38;;;;;;;19.26;100.00;100893.25;5068378;28;20110;-73
2024/04/01 09:06:31;;;;;;;33.35;31.15;;;;;;;23.96;78.96;100889.25;5067869;28;20048;-73
2024/04/01 09:09:05;;;;;;;31.00;29.00;;;;;;;22.11;100.00;100886.50;5064365;28;20047;-75
2024/04/01 09:11:32;;;;;;;31.23;29.20;;;;;;;21.25;100.00;100893.00;5070133;28;20130;-73
2024/04/01 09:14:00;;;;;;;32.42;30.33;;;;;;;22.12;100.00;100890.84;5072041;28;20117;-73
2024/04/01 09:16:29;;;;;;;32.15;30.05;;;;;;;21.46;100.00;100888.41;5072317;28;20522;-75
2024/04/01 09:19:01;;;;;;;30.40;28.50;;;;;;;19.75;100.00;100881.44;5067984;28;20052;-75
2024/04/01 09:21:29;;;;;;;31.15;29.17;;;;;;;20.24;100.00;100876.50;5072009;28;20129;-74
2024/04/01 09:23:55;;;;;;;32.95;30.92;;;;;;;19.37;100.00;100880.69;5071986;28;20438;-73
2024/04/01 09:26:30;;;;;;;48.03;33.97;;;;;;;25.03;75.67;100870.50;5072233;28;20691;-74
2024/04/01 09:28:56;;;;;;;37.78;35.08;;;;;;;25.07;74.96;100866.06;5072303;28;20049;-77
2024/04/01 09:31:23;;;;;;;40.47;37.08;;;;;;;23.95;74.46;100855.06;5072916;28;20092;-78
2024/04/01 09:33:52;;;;;;;43.53;36.15;;;;;;;22.93;100.00;100863.47;5064326;28;20053;-77
2024/04/01 09:36:20;;;;;;;40.20;36.03;;;;;;;23.74;82.23;100857.22;5071978;28;20519;-77
2024/04/01 09:38:48;;;;;;;41.67;38.67;;;;;;;24.68;78.79;100858.34;5071418;28;20515;-77
2024/04/01 09:41:15;;;;;;;37.22;34.72;;;;;;;21.98;100.00;100849.25;5070725;28;20056;-77
2024/04/01 09:43:41;;;;;;;36.55;33.85;;;;;;;23.57;95.89;100850.63;5071485;28;20401;-76
2024/04/01 09:46:09;;;;;;;36.72;33.92;;;;;;;23.07;100.00;100846.31;5067762;28;20056;-77
2024/04/01 09:48:36;;;;;;;37.63;34.72;;;;;;;25.30;67.64;100836.34;5066746;28;20106;-73
2024/04/01 09:51:04;;;;;;;38.47;35.45;;;;;;;26.91;49.44;100826.69;5070813;28;20060;-74
2024/04/01 09:53:30;;;;;;;41.50;38.50;;;;;;;27.07;44.37;100831.75;5070694;28;20052;-74
2024/04/01 09:56:43;;;;;;;40.00;37.10;;;;;;;25.68;51.35;100836.13;5070969;28;20773;-74
2024/04/01 09:59:26;;;;;;;;;;;;;;;21.82;100.00;100834.22;5057693;28;20530;-74
2024/04/01 10:02:32;;;;;;;43.10;40.17;;;;;;;23.85;92.80;100832.72;5064548;28;19931;-74
2024/04/01 10:05:21;;;;;;;39.33;36.60;;;;;;;23.08;76.61;100834.38;5070651;28;20569;-74
2024/04/01 10:08:26;;;;;;;40.78;37.53;;;;;;;20.56;100.00;100841.22;5065612;28;20400;-73
2024/04/01 10:11:30;;;;;;;38.47;35.78;;;;;;;24.09;66.54;100830.75;5068547;28;20051;-73
2024/04/01 10:14:23;;;;;;;38.83;36.10;;;;;;;22.30;100.00;100837.19;5064029;28;20131;-74
2024/04/01 10:17:29;;;;;;;36.35;33.85;;;;;;;23.80;76.29;100830.06;5070050;28;20094;-74
2024/04/01 10:20:18;;;;;;;37.40;34.80;;;;;;;25.38;63.21;100832.91;5072118;28;20082;-74
2024/04/01 10:23:29;;;;;;;38.22;35.63;;;;;;;22.93;91.40;100834.50;5071260;28;20044;-77
2024/04/01 10:26:43;;;;;;;39.22;35.85;;;;;;;27.34;40.21;100822.56;5062880;28;20497;-77
2024/04/01 10:32:37;;;;;;;40.05;37.35;;;;;;;22.48;100.00;100830.28;5125581;27;20380;-77
2024/04/01 10:35:37;;;;;;;38.40;35.70;;;;;;;23.71;77.98;100822.56;5089605;28;20055;-77
2024/04/01 10:38:28;;;;;;;38.70;35.90;;;;;;;22.78;98.89;100832.75;5116987;28;20059;-77
2024/04/01 10:41:23;;;;;;;37.03;34.25;;;;;;;26.43;56.74;100821.91;5097539;28;20051;-77
2024/04/01 10:44:18;;;;;;;36.85;34.20;;;;;;;23.27;78.34;100815.50;5114125;28;20138;-73
2024/04/01 10:47:28;;;;;;;35.70;33.10;;;;;;;21.14;100.00;100827.38;5106611;28;20058;-77
2024/04/01 10:50:13;;;;;;;34.85;32.42;;;;;;;22.21;100.00;100819.94;5106090;28;20867;-77
2024/04/01 10:53:23;;;;;;;37.85;35.05;;;;;;;21.32;100.00;100815.19;5109477;28;20055;-77
2024/04/01 10:56:31;;;;;;;36.95;34.45;;;;;;;21.46;100.00;100808.16;5090261;28;20407;-77
2024/04/01 10:59:26;;;;;;;55.30;36.83;;;;;;;22.50;100.00;100809.19;5047906;27;20415;-77
2024/04/01 11:02:11;;;;;;;33.42;31.02;;;;;;;20.76;100.00;100804.53;5113638;27;20048;-77
2024/04/01 11:05:10;;;;;;;35.40;32.88;;;;;;;22.66;100.00;100799.81;5114218;28;20522;-74
2024/04/01 11:07:52;;;;;;;36.03;32.90;;;;;;;25.11;65.41;100799.19;5116757;28;20052;-73
2024/04/01 11:10:35;;;;;;;36.45;33.40;;;;;;;24.38;85.29;100787.13;5105612;27;20050;-74
2024/04/01 11:13:09;;;;;;;37.67;34.88;;;;;;;26.19;67.29;100786.03;5105917;28;20598;-74
2024/04/01 11:15:35;;;;;;;34.60;32.00;;;;;;;24.61;74.66;100788.13;5110461;28;20484;-73
2024/04/01 11:18:16;;;;;;;35.15;32.65;;;;;;;22.87;98.01;100784.19;5106148;28;20154;-74
2024/04/01 11:20:50;;;;;;;36.40;33.90;;;;;;;22.55;100.00;100779.38;5118539;28;20108;-73